createdAt,value
2023-03-20T00:02:07.696Z,7.66
2023-03-20T00:04:35.755Z,7.66
2023-03-20T00:07:03.846Z,7.66
2023-03-20T00:09:32.970Z,7.66
2023-03-20T00:12:01.671Z,7.65
2023-03-20T00:14:29.673Z,7.67
2023-03-20T00:16:57.702Z,7.65
2023-03-20T00:19:29.354Z,7.62
2023-03-20T00:21:57.599Z,7.61
2023-03-20T00:24:26.328Z,7.61
2023-03-20T00:26:55.226Z,7.63
2023-03-20T00:29:25.190Z,7.62
2023-03-20T00:31:53.933Z,7.65
2023-03-20T00:34:25.737Z,7.64
2023-03-20T00:36:56.304Z,7.65
2023-03-20T00:39:24.923Z,7.62
2023-03-20T00:41:55.237Z,7.60
2023-03-20T00:44:26.291Z,7.62
2023-03-20T00:46:56.736Z,7.59
2023-03-20T00:49:28.885Z,7.58
2023-03-20T00:51:58.795Z,7.57
2023-03-20T00:54:26.931Z,7.58
2023-03-20T00:56:59.082Z,7.58
2023-03-20T00:59:31.468Z,7.58
2023-03-20T01:01:59.974Z,7.60
2023-03-20T01:04:32.690Z,7.62
2023-03-20T01:07:01.930Z,7.64
2023-03-20T01:09:29.762Z,7.66
2023-03-20T01:11:57.897Z,7.65
2023-03-20T01:14:26.540Z,7.64
2023-03-20T01:16:54.575Z,7.62
2023-03-20T01:19:22.810Z,7.61
2023-03-20T01:21:50.694Z,7.60
2023-03-20T01:24:19.943Z,7.57
2023-03-20T01:26:47.908Z,7.57
2023-03-20T01:29:20.574Z,7.58
2023-03-20T01:31:49.785Z,7.57
2023-03-20T01:34:19.861Z,7.59
2023-03-20T01:36:51.717Z,7.61
2023-03-20T01:39:24.339Z,7.64
2023-03-20T01:41:54.260Z,7.60
2023-03-20T01:44:26.082Z,7.62
2023-03-20T01:46:58.847Z,7.60
2023-03-20T01:50:04.203Z,7.65
2023-03-20T01:52:32.097Z,7.67
2023-03-20T01:55:03.967Z,7.65
2023-03-20T01:57:32.147Z,7.61
2023-03-20T02:00:04.623Z,7.69
2023-03-20T02:02:45.234Z,7.68
2023-03-20T02:05:20.139Z,7.66
2023-03-20T02:07:55.595Z,7.65
2023-03-20T02:10:26.837Z,7.61
2023-03-20T02:13:05.533Z,7.61
2023-03-20T02:15:57.699Z,7.58
2023-03-20T02:18:52.057Z,7.59
2023-03-20T02:22:01.352Z,7.57
2023-03-20T02:24:57.423Z,7.57
2023-03-20T02:27:38.640Z,7.58
2023-03-20T02:30:44.190Z,7.57
2023-03-20T02:34:03.922Z,7.54
2023-03-20T02:37:05.762Z,7.49
2023-03-20T02:39:57.362Z,7.51
2023-03-20T02:42:36.180Z,7.49
2023-03-20T02:45:15.918Z,7.50
2023-03-20T02:47:53.691Z,7.49
2023-03-20T02:50:33.083Z,7.46
2023-03-20T02:53:12.894Z,7.45
2023-03-20T02:55:47.389Z,7.46
2023-03-20T02:58:18.706Z,7.44
2023-03-20T03:00:52.235Z,7.44
2023-03-20T03:03:23.496Z,7.41
2023-03-20T03:05:57.091Z,7.42
2023-03-20T03:08:29.622Z,7.45
2023-03-20T03:11:04.385Z,7.43
2023-03-20T03:13:37.399Z,7.41
2023-03-20T03:16:09.941Z,7.42
2023-03-20T03:18:39.531Z,7.44
2023-03-20T03:21:10.316Z,7.43
2023-03-20T03:23:44.611Z,7.47
2023-03-20T03:26:19.727Z,7.48
2023-03-20T03:28:51.152Z,7.46
2023-03-20T03:31:20.630Z,7.42
2023-03-20T03:33:52.764Z,7.39
2023-03-20T03:36:28.346Z,7.39
2023-03-20T03:39:02.885Z,7.41
2023-03-20T03:41:39.119Z,7.39
2023-03-20T03:44:13.212Z,7.40
2023-03-20T03:46:46.958Z,7.40
2023-03-20T03:49:19.870Z,7.37
2023-03-20T03:51:52.076Z,7.38
2023-03-20T03:54:23.604Z,7.38
2023-03-20T03:57:21.516Z,7.37
2023-03-20T03:59:52.734Z,7.38
2023-03-20T04:02:23.383Z,7.35
2023-03-20T04:04:54.717Z,7.37
2023-03-20T04:07:22.626Z,7.35
2023-03-20T04:09:50.521Z,7.35
2023-03-20T04:12:33.878Z,7.39
2023-03-20T04:15:03.521Z,7.37
2023-03-20T04:17:33.545Z,7.36
2023-03-20T04:20:01.829Z,7.35
2023-03-20T04:22:29.690Z,7.32
2023-03-20T04:25:04.932Z,7.31
2023-03-20T04:27:34.162Z,7.33
2023-03-20T04:30:05.154Z,7.31
2023-03-20T04:32:58.862Z,7.26
2023-03-20T04:35:41.898Z,7.27
2023-03-20T04:38:14.013Z,7.22
2023-03-20T04:40:42.429Z,7.20
2023-03-20T04:43:11.594Z,7.18
2023-03-20T04:45:39.952Z,7.13
2023-03-20T04:48:09.384Z,7.09
2023-03-20T04:50:37.926Z,7.12
2023-03-20T04:53:06.395Z,7.06
2023-03-20T04:55:34.567Z,7.04
2023-03-20T04:58:02.494Z,7.07
2023-03-20T05:00:32.830Z,7.11
2023-03-20T05:03:01.535Z,7.11
2023-03-20T05:05:30.529Z,7.11
2023-03-20T05:07:58.775Z,7.10
2023-03-20T05:10:33.954Z,7.09
2023-03-20T05:13:08.355Z,7.11
2023-03-20T05:15:55.604Z,7.12
2023-03-20T05:18:40.130Z,7.10
2023-03-20T05:21:41.884Z,7.07
2023-03-20T05:24:32.528Z,7.10
2023-03-20T05:27:27.632Z,7.10
2023-03-20T05:30:09.013Z,7.08
2023-03-20T05:32:58.540Z,7.10
2023-03-20T05:35:29.529Z,7.06
2023-03-20T05:38:04.509Z,7.05
2023-03-20T05:40:42.911Z,7.05
2023-03-20T05:43:33.557Z,7.07
2023-03-20T05:46:19.450Z,7.08
2023-03-20T05:49:02.495Z,7.10
2023-03-20T05:51:50.613Z,7.13
2023-03-20T05:54:28.858Z,7.14
2023-03-20T05:57:09.068Z,7.14
2023-03-20T05:59:54.870Z,7.18
2023-03-20T06:02:38.144Z,7.20
2023-03-20T06:05:22.462Z,7.24
2023-03-20T06:07:53.085Z,7.27
2023-03-20T06:10:21.214Z,7.30
2023-03-20T06:12:51.181Z,7.28
2023-03-20T06:15:25.222Z,7.31
2023-03-20T06:18:00.453Z,7.36
2023-03-20T06:20:30.442Z,7.38
2023-03-20T06:22:59.095Z,7.39
2023-03-20T06:25:27.055Z,7.45
2023-03-20T06:27:55.026Z,7.48
2023-03-20T06:30:23.866Z,7.53
2023-03-20T06:32:52.874Z,7.57
2023-03-20T06:35:22.707Z,7.62
2023-03-20T06:37:53.429Z,7.68
2023-03-20T06:40:25.539Z,7.69
2023-03-20T06:42:53.505Z,7.76
2023-03-20T06:45:23.346Z,7.81
2023-03-20T06:47:54.272Z,7.89
2023-03-20T06:50:23.430Z,7.94
2023-03-20T06:52:53.011Z,8.03
2023-03-20T06:55:48.819Z,8.13
2023-03-20T06:58:17.385Z,8.14
2023-03-20T07:00:46.718Z,8.22
2023-03-20T07:03:15.761Z,8.34
2023-03-20T07:05:46.623Z,8.37
2023-03-20T07:08:16.203Z,8.46
2023-03-20T07:10:44.199Z,8.51
2023-03-20T07:13:14.386Z,8.49
2023-03-20T07:16:01.119Z,8.56
2023-03-20T07:18:31.234Z,8.60
2023-03-20T07:21:02.484Z,8.59
2023-03-20T07:23:34.436Z,8.58
2023-03-20T07:26:03.440Z,8.59
2023-03-20T07:28:31.578Z,8.61
2023-03-20T07:31:21.196Z,8.61
2023-03-20T07:33:52.852Z,8.65
2023-03-20T07:36:22.330Z,8.72
2023-03-20T07:38:51.956Z,8.77
2023-03-20T07:41:20.375Z,8.81
2023-03-20T07:43:58.922Z,8.84
2023-03-20T07:46:52.983Z,8.93
2023-03-20T07:49:23.990Z,9.02
2023-03-20T07:51:52.417Z,9.08
2023-03-20T07:54:21.871Z,9.11
2023-03-20T07:56:51.002Z,9.17
2023-03-20T07:59:19.971Z,9.19
2023-03-20T08:01:47.808Z,9.26
2023-03-20T08:04:19.626Z,9.27
2023-03-20T08:06:47.736Z,9.36
2023-03-20T08:09:16.267Z,9.40
2023-03-20T08:11:46.131Z,9.44
2023-03-20T08:14:14.201Z,9.51
2023-03-20T08:16:42.115Z,9.47
2023-03-20T08:19:10.097Z,9.40
2023-03-20T08:21:37.973Z,9.42
2023-03-20T08:24:06.336Z,9.46
2023-03-20T08:26:34.270Z,9.45
2023-03-20T08:29:03.645Z,9.54
2023-03-20T08:31:31.577Z,9.58
2023-03-20T08:33:59.990Z,9.60
2023-03-20T08:36:27.967Z,9.65
2023-03-20T08:38:56.199Z,9.68
2023-03-20T08:41:24.120Z,9.66
2023-03-20T08:43:51.935Z,9.66
2023-03-20T08:46:21.145Z,9.74
2023-03-20T08:48:49.130Z,9.71
2023-03-20T08:51:17.030Z,9.68
2023-03-20T08:53:44.846Z,9.69
2023-03-20T08:56:12.850Z,9.72
2023-03-20T08:58:40.790Z,9.67
2023-03-20T09:01:10.372Z,9.65
2023-03-20T09:03:39.733Z,9.71
2023-03-20T09:06:09.258Z,9.79
2023-03-20T09:08:37.143Z,9.80
2023-03-20T09:11:05.926Z,9.83
2023-03-20T09:13:33.893Z,9.84
2023-03-20T09:16:01.904Z,9.89
2023-03-20T09:18:30.179Z,9.89
2023-03-20T09:20:59.941Z,9.96
2023-03-20T09:23:28.228Z,10.01
2023-03-20T09:25:56.518Z,9.99
2023-03-20T09:28:24.975Z,10.01
2023-03-20T09:30:57.100Z,9.99
2023-03-20T09:33:25.558Z,10.04
2023-03-20T09:35:54.174Z,10.03
2023-03-20T09:38:24.370Z,10.10
2023-03-20T09:40:55.240Z,10.11
2023-03-20T09:43:48.488Z,10.20
2023-03-20T09:46:33.623Z,10.26
2023-03-20T09:49:08.777Z,10.34
2023-03-20T09:51:41.863Z,10.44
2023-03-20T09:54:18.365Z,10.51
2023-03-20T09:56:46.727Z,10.56
2023-03-20T09:59:17.349Z,10.68
2023-03-20T10:01:49.902Z,10.63
2023-03-20T10:04:17.961Z,10.68
2023-03-20T10:06:46.687Z,10.75
2023-03-20T10:09:23.966Z,10.70
2023-03-20T10:12:08.286Z,10.74
2023-03-20T10:14:44.632Z,10.74
2023-03-20T10:17:30.522Z,10.77
2023-03-20T10:20:03.363Z,10.69
2023-03-20T10:22:36.158Z,10.71
2023-03-20T10:25:17.037Z,10.69
2023-03-20T10:27:50.266Z,10.63
2023-03-20T10:30:31.289Z,10.63
2023-03-20T10:33:12.920Z,10.60
2023-03-20T10:35:50.709Z,10.55
2023-03-20T10:38:28.113Z,10.50
2023-03-20T10:40:59.204Z,10.47
2023-03-20T10:43:32.857Z,10.49
2023-03-20T10:46:06.106Z,10.51
2023-03-20T10:48:38.853Z,10.53
2023-03-20T10:51:14.630Z,10.49
2023-03-20T10:53:47.917Z,10.52
2023-03-20T10:56:27.972Z,10.55
2023-03-20T10:59:00.741Z,10.52
2023-03-20T11:01:28.648Z,10.53
2023-03-20T11:03:56.592Z,10.51
2023-03-20T11:06:28.736Z,10.54
2023-03-20T11:08:56.600Z,10.57
2023-03-20T11:11:28.251Z,10.61
2023-03-20T11:13:57.061Z,10.60
2023-03-20T11:16:27.498Z,10.65
2023-03-20T11:18:55.387Z,10.66
2023-03-20T11:21:26.065Z,10.76
2023-03-20T11:23:55.426Z,10.75
2023-03-20T11:26:37.004Z,10.76
2023-03-20T11:29:07.944Z,10.84
2023-03-20T11:31:38.089Z,10.92
2023-03-20T11:34:27.805Z,11.09
2023-03-20T11:37:09.689Z,11.16
2023-03-20T11:39:40.078Z,11.26
2023-03-20T11:42:24.170Z,11.35
2023-03-20T11:45:00.272Z,11.35
2023-03-20T11:47:31.010Z,11.34
2023-03-20T11:50:01.720Z,11.32
2023-03-20T11:52:32.892Z,11.32
2023-03-20T11:55:03.329Z,11.39
2023-03-20T11:57:36.077Z,11.39
2023-03-20T12:00:08.740Z,11.30
2023-03-20T12:02:37.431Z,11.30
2023-03-20T12:05:29.853Z,11.39
2023-03-20T12:08:01.135Z,11.49
2023-03-20T12:10:37.321Z,11.55
2023-03-20T12:13:16.044Z,11.53
2023-03-20T12:15:48.691Z,11.62
2023-03-20T12:18:23.234Z,11.54
2023-03-20T12:21:03.977Z,11.51
2023-03-20T12:23:35.733Z,11.56
2023-03-20T12:26:07.228Z,11.60
2023-03-20T12:28:41.783Z,11.58
2023-03-20T12:31:21.649Z,11.56
2023-03-20T12:33:55.897Z,11.53
2023-03-20T12:36:31.316Z,11.53
2023-03-20T12:38:59.617Z,11.51
2023-03-20T12:41:31.584Z,11.58
2023-03-20T12:44:25.626Z,11.62
2023-03-20T12:47:06.996Z,11.65
2023-03-20T12:49:45.116Z,11.66
2023-03-20T12:52:22.294Z,11.70
2023-03-20T12:55:06.124Z,11.71
2023-03-20T12:57:41.533Z,11.69
2023-03-20T13:00:24.081Z,11.73
2023-03-20T13:03:02.954Z,11.62
2023-03-20T13:05:41.421Z,11.68
2023-03-20T13:08:34.278Z,11.63
2023-03-20T13:11:10.484Z,11.60
2023-03-20T13:13:46.481Z,11.55
2023-03-20T13:16:23.301Z,11.53
2023-03-20T13:18:59.089Z,11.60
2023-03-20T13:21:36.101Z,11.69
2023-03-20T13:24:23.696Z,11.74
2023-03-20T13:26:59.320Z,11.76
2023-03-20T13:29:35.465Z,11.83
2023-03-20T13:32:12.769Z,11.91
2023-03-20T13:34:58.206Z,11.94
2023-03-20T13:37:33.325Z,11.96
2023-03-20T13:40:06.970Z,11.95
2023-03-20T13:42:39.706Z,12.01
2023-03-20T13:45:24.732Z,12.14
2023-03-20T13:47:54.870Z,12.20
2023-03-20T13:50:33.924Z,12.35
2023-03-20T13:53:07.421Z,12.45
2023-03-20T13:55:44.172Z,12.37
2023-03-20T13:58:31.669Z,12.37
2023-03-20T14:01:07.032Z,12.46
2023-03-20T14:03:38.883Z,12.58
2023-03-20T14:06:19.011Z,12.61
2023-03-20T14:08:50.154Z,12.68
2023-03-20T14:11:35.570Z,12.63
2023-03-20T14:14:14.065Z,12.66
2023-03-20T14:16:43.094Z,12.66
2023-03-20T14:19:20.718Z,12.72
2023-03-20T14:21:50.240Z,12.66
2023-03-20T14:24:20.402Z,12.64
2023-03-20T14:26:51.214Z,12.59
2023-03-20T14:29:43.060Z,12.63
2023-03-20T14:32:36.590Z,12.56
2023-03-20T14:35:26.038Z,12.54
2023-03-20T14:38:10.709Z,12.59
2023-03-20T14:40:44.677Z,12.55
2023-03-20T14:43:22.064Z,12.55
2023-03-20T14:45:55.620Z,12.58
2023-03-20T14:48:32.603Z,12.44
2023-03-20T14:51:19.929Z,12.49
2023-03-20T14:53:54.730Z,12.44
2023-03-20T14:56:30.265Z,12.34
2023-03-20T14:59:02.585Z,12.35
2023-03-20T15:01:47.772Z,12.37
2023-03-20T15:04:29.677Z,12.26
2023-03-20T15:07:01.969Z,12.24
2023-03-20T15:09:32.268Z,12.21
2023-03-20T15:12:04.370Z,12.20
2023-03-20T15:14:41.602Z,12.18
2023-03-20T15:17:18.406Z,12.12
2023-03-20T15:19:46.253Z,12.07
2023-03-20T15:22:18.928Z,12.10
2023-03-20T15:24:53.781Z,12.04
2023-03-20T15:27:22.660Z,12.01
2023-03-20T15:29:53.588Z,11.98
2023-03-20T15:32:22.077Z,11.96
2023-03-20T15:34:52.139Z,11.95
2023-03-20T15:37:25.244Z,11.90
2023-03-20T15:39:56.225Z,11.85
2023-03-20T15:42:27.595Z,11.84
2023-03-20T15:44:56.843Z,11.84
2023-03-20T15:47:26.261Z,11.84
2023-03-20T15:49:56.419Z,11.83
2023-03-20T15:52:32.814Z,11.80
2023-03-20T15:55:04.007Z,11.79
2023-03-20T15:57:35.934Z,11.79
2023-03-20T16:00:07.448Z,11.76
2023-03-20T16:02:37.838Z,11.82
2023-03-20T16:05:10.234Z,11.85
2023-03-20T16:07:39.610Z,11.76
2023-03-20T16:10:18.378Z,11.77
2023-03-20T16:12:51.421Z,11.75
2023-03-20T16:15:20.391Z,11.67
2023-03-20T16:17:50.326Z,11.70
2023-03-20T16:20:19.459Z,11.71
2023-03-20T16:22:50.238Z,11.62
2023-03-20T16:25:19.972Z,11.59
2023-03-20T16:27:51.063Z,11.54
2023-03-20T16:30:22.381Z,11.52
2023-03-20T16:32:57.372Z,11.47
2023-03-20T16:35:28.455Z,11.45
2023-03-20T16:37:59.559Z,11.41
2023-03-20T16:40:32.774Z,11.36
2023-03-20T16:43:08.230Z,11.36
2023-03-20T16:45:37.265Z,11.29
2023-03-20T16:48:31.798Z,11.21
2023-03-20T16:51:04.088Z,11.18
2023-03-20T16:53:43.269Z,11.14
2023-03-20T16:56:14.335Z,11.06
2023-03-20T16:58:44.248Z,11.03
2023-03-20T17:01:17.969Z,10.98
2023-03-20T17:03:50.665Z,10.98
2023-03-20T17:06:45.830Z,10.94
2023-03-20T17:09:21.981Z,10.87
2023-03-20T17:11:51.671Z,10.86
2023-03-20T17:14:19.511Z,10.79
2023-03-20T17:16:47.403Z,10.73
2023-03-20T17:19:17.601Z,10.71
2023-03-20T17:21:47.138Z,10.67
2023-03-20T17:24:16.665Z,10.63
2023-03-20T17:26:52.125Z,10.58
2023-03-20T17:29:20.115Z,10.58
2023-03-20T17:31:48.108Z,10.58
2023-03-20T17:34:15.988Z,10.54
2023-03-20T17:36:45.453Z,10.53
2023-03-20T17:39:19.983Z,10.49
2023-03-20T17:41:49.525Z,10.44
2023-03-20T17:44:17.389Z,10.48
2023-03-20T17:46:57.417Z,10.46
2023-03-20T17:49:28.005Z,10.41
2023-03-20T17:51:56.147Z,10.41
2023-03-20T17:54:24.013Z,10.38
2023-03-20T17:56:53.266Z,10.34
2023-03-20T17:59:21.133Z,10.28
2023-03-20T18:01:49.231Z,10.29
2023-03-20T18:04:17.146Z,10.28
2023-03-20T18:06:46.108Z,10.25
2023-03-20T18:09:16.130Z,10.21
2023-03-20T18:11:44.576Z,10.19
2023-03-20T18:14:17.818Z,10.18
2023-03-20T18:16:45.795Z,10.16
2023-03-20T18:19:21.784Z,10.10
2023-03-20T18:21:49.774Z,10.07
2023-03-20T18:24:17.771Z,10.06
2023-03-20T18:26:47.323Z,10.04
2023-03-20T18:29:16.768Z,10.01
2023-03-20T18:31:44.881Z,10.00
2023-03-20T18:34:13.165Z,10.00
2023-03-20T18:36:45.714Z,9.97
2023-03-20T18:39:18.803Z,9.93
2023-03-20T18:41:47.027Z,9.99
2023-03-20T18:44:17.035Z,9.94
2023-03-20T18:46:44.937Z,9.94
2023-03-20T18:49:16.597Z,9.91
2023-03-20T18:51:44.511Z,9.89
2023-03-20T18:54:14.205Z,9.84
2023-03-20T18:56:43.924Z,9.87
2023-03-20T18:59:13.838Z,9.84
2023-03-20T19:01:43.174Z,9.81
2023-03-20T19:04:11.306Z,9.80
2023-03-20T19:06:39.217Z,9.76
2023-03-20T19:09:11.405Z,9.76
2023-03-20T19:11:39.697Z,9.73
2023-03-20T19:14:07.549Z,9.76
2023-03-20T19:16:38.622Z,9.71
2023-03-20T19:19:09.918Z,9.69
2023-03-20T19:21:37.876Z,9.70
2023-03-20T19:24:08.488Z,9.69
2023-03-20T19:26:38.757Z,9.66
2023-03-20T19:29:10.410Z,9.64
2023-03-20T19:31:39.640Z,9.62
2023-03-20T19:34:28.063Z,9.61
2023-03-20T19:36:58.916Z,9.62
2023-03-20T19:39:28.003Z,9.65
2023-03-20T19:42:02.828Z,9.63
2023-03-20T19:44:39.895Z,9.63
2023-03-20T19:47:07.715Z,9.61
2023-03-20T19:49:37.038Z,9.60
2023-03-20T19:52:07.027Z,9.58
2023-03-20T19:54:34.905Z,9.58
2023-03-20T19:57:03.134Z,9.57
2023-03-20T19:59:32.756Z,9.55
2023-03-20T20:02:00.947Z,9.55
2023-03-20T20:04:29.246Z,9.50
2023-03-20T20:07:26.688Z,9.53
2023-03-20T20:09:46.846Z,9.49
2023-03-20T20:12:14.774Z,9.46
2023-03-20T20:14:44.060Z,9.46
2023-03-20T20:17:12.147Z,9.44
2023-03-20T20:19:41.143Z,9.42
2023-03-20T20:22:24.819Z,9.39
2023-03-20T20:24:53.800Z,9.38
2023-03-20T20:27:21.981Z,9.35
2023-03-20T20:29:51.270Z,9.37
2023-03-20T20:32:21.836Z,9.31
2023-03-20T20:35:35.016Z,9.32
2023-03-20T20:40:31.450Z,9.24
2023-03-20T20:43:02.035Z,9.19
2023-03-20T20:45:31.608Z,9.23
2023-03-20T20:48:00.884Z,9.22
2023-03-20T20:50:32.921Z,9.21
2023-03-20T20:53:02.294Z,9.21
2023-03-20T20:55:30.663Z,9.19
2023-03-20T20:58:01.358Z,9.20
2023-03-20T21:00:47.529Z,9.18
2023-03-20T21:03:16.685Z,9.17
2023-03-20T21:05:44.564Z,9.14
2023-03-20T21:08:14.440Z,9.16
2023-03-20T21:10:42.600Z,9.11
2023-03-20T21:13:10.586Z,9.14
2023-03-20T21:15:39.669Z,9.14
2023-03-20T21:18:08.056Z,9.12
2023-03-20T21:20:36.078Z,9.08
2023-03-20T21:23:04.152Z,9.09
2023-03-20T21:25:44.794Z,9.08
2023-03-20T21:28:13.964Z,9.07
2023-03-20T21:30:59.943Z,9.05
2023-03-20T21:33:31.439Z,9.08
2023-03-20T21:35:59.519Z,9.09
2023-03-20T21:39:02.082Z,9.06
2023-03-20T21:41:17.267Z,9.03
2023-03-20T21:43:47.289Z,9.05
2023-03-20T21:52:41.880Z,9.09
2023-03-20T21:58:04.334Z,9.12
2023-03-20T22:01:09.666Z,9.10
2023-03-20T22:03:10.919Z,9.09
2023-03-20T22:06:14.425Z,9.08
2023-03-20T22:10:11.084Z,9.08
2023-03-20T22:17:45.620Z,9.09
2023-03-20T22:23:28.653Z,9.07
2023-03-20T22:26:04.805Z,9.06
2023-03-20T22:28:49.873Z,9.06
2023-03-20T22:40:21.647Z,9.03
2023-03-20T22:45:03.279Z,9.09
2023-03-20T22:47:33.388Z,9.09
2023-03-20T22:50:01.472Z,9.07
2023-03-20T22:52:41.988Z,9.05
2023-03-20T22:55:16.638Z,9.05
2023-03-20T22:57:56.144Z,9.04
2023-03-20T23:00:31.713Z,9.07
2023-03-20T23:03:15.272Z,9.06
2023-03-20T23:05:45.800Z,9.03
2023-03-20T23:08:13.734Z,9.03
2023-03-20T23:10:43.739Z,9.02
2023-03-20T23:13:12.486Z,9.02
2023-03-20T23:15:40.718Z,8.98
2023-03-20T23:18:11.389Z,8.98
2023-03-20T23:20:39.397Z,8.97
2023-03-20T23:23:07.354Z,8.97
2023-03-20T23:25:39.808Z,8.99
2023-03-20T23:28:09.046Z,8.98
2023-03-20T23:30:46.762Z,8.97
2023-03-20T23:33:21.141Z,8.95
2023-03-20T23:35:51.223Z,8.94
2023-03-20T23:38:19.215Z,8.93
2023-03-20T23:40:50.078Z,8.93
2023-03-20T23:43:19.044Z,8.89
2023-03-20T23:45:47.859Z,8.92
2023-03-20T23:48:15.954Z,8.93
2023-03-20T23:50:52.850Z,8.97
2023-03-20T23:53:21.544Z,8.93
2023-03-20T23:55:51.020Z,8.88
2023-03-20T23:58:20.189Z,8.86
